sensor_id;sensor_type;location;lat;lon;timestamp;temperature;humidity
27890;DHT22;15238;49.082;9.102;2023-05-15T00:00:40;11.30;99.90
27890;DHT22;15238;49.082;9.102;2023-05-15T00:02:41;11.30;99.90
27890;DHT22;15238;49.082;9.102;2023-05-15T00:04:43;11.30;99.90
27890;DHT22;15238;49.082;9.102;2023-05-15T00:06:43;11.20;99.90
27890;DHT22;15238;49.082;9.102;2023-05-15T00:08:44;11.20;99.90
27890;DHT22;15238;49.082;9.102;2023-05-15T00:10:44;11.10;99.90
27890;DHT22;15238;49.082;9.102;2023-05-15T00:12:45;11.10;99.90
27890;DHT22;15238;49.082;9.102;2023-05-15T00:14:45;11.10;99.90
27890;DHT22;15238;49.082;9.102;2023-05-15T00:16:46;11.10;99.90
27890;DHT22;15238;49.082;9.102;2023-05-15T00:18:47;11.10;99.90
27890;DHT22;15238;49.082;9.102;2023-05-15T00:20:47;11.20;99.90
27890;DHT22;15238;49.082;9.102;2023-05-15T00:22:48;11.20;99.90
27890;DHT22;15238;49.082;9.102;2023-05-15T00:24:48;11.20;99.90
27890;DHT22;15238;49.082;9.102;2023-05-15T00:26:49;11.10;99.90
27890;DHT22;15238;49.082;9.102;2023-05-15T00:28:50;11.10;99.90
27890;DHT22;15238;49.082;9.102;2023-05-15T00:30:51;11.00;99.90
27890;DHT22;15238;49.082;9.102;2023-05-15T00:32:51;11.00;99.90
27890;DHT22;15238;49.082;9.102;2023-05-15T00:34:52;11.00;99.90
27890;DHT22;15238;49.082;9.102;2023-05-15T00:36:52;11.00;99.90
27890;DHT22;15238;49.082;9.102;2023-05-15T00:38:53;11.00;99.90
27890;DHT22;15238;49.082;9.102;2023-05-15T00:40:54;10.90;99.90
27890;DHT22;15238;49.082;9.102;2023-05-15T00:42:55;10.90;99.90
27890;DHT22;15238;49.082;9.102;2023-05-15T00:44:57;10.90;99.90
27890;DHT22;15238;49.082;9.102;2023-05-15T00:47:01;10.80;99.90
27890;DHT22;15238;49.082;9.102;2023-05-15T00:49:03;10.80;99.90
27890;DHT22;15238;49.082;9.102;2023-05-15T00:51:04;10.80;99.90
27890;DHT22;15238;49.082;9.102;2023-05-15T00:53:05;10.80;99.90
27890;DHT22;15238;49.082;9.102;2023-05-15T00:55:06;10.80;99.90
27890;DHT22;15238;49.082;9.102;2023-05-15T00:57:08;10.70;99.90
27890;DHT22;15238;49.082;9.102;2023-05-15T00:59:10;10.80;99.90
27890;DHT22;15238;49.082;9.102;2023-05-15T01:01:14;10.80;99.90
27890;DHT22;15238;49.082;9.102;2023-05-15T01:03:16;10.70;99.90
27890;DHT22;15238;49.082;9.102;2023-05-15T01:05:16;10.70;99.90
27890;DHT22;15238;49.082;9.102;2023-05-15T01:07:17;10.80;99.90
27890;DHT22;15238;49.082;9.102;2023-05-15T01:09:18;10.80;99.90
27890;DHT22;15238;49.082;9.102;2023-05-15T01:11:19;10.80;99.90
27890;DHT22;15238;49.082;9.102;2023-05-15T01:13:21;10.80;99.90
27890;DHT22;15238;49.082;9.102;2023-05-15T01:15:22;10.80;99.90
27890;DHT22;15238;49.082;9.102;2023-05-15T01:17:23;10.90;99.90
27890;DHT22;15238;49.082;9.102;2023-05-15T01:19:24;10.80;99.90
27890;DHT22;15238;49.082;9.102;2023-05-15T01:21:41;10.70;99.90
27890;DHT22;15238;49.082;9.102;2023-05-15T01:28:42;10.70;99.90
27890;DHT22;15238;49.082;9.102;2023-05-15T01:30:46;10.70;99.90
27890;DHT22;15238;49.082;9.102;2023-05-15T01:34:56;10.70;99.90
27890;DHT22;15238;49.082;9.102;2023-05-15T01:37:02;10.70;99.90
27890;DHT22;15238;49.082;9.102;2023-05-15T01:39:04;10.70;99.90
27890;DHT22;15238;49.082;9.102;2023-05-15T01:41:34;10.70;99.90
27890;DHT22;15238;49.082;9.102;2023-05-15T01:43:38;10.80;99.90
27890;DHT22;15238;49.082;9.102;2023-05-15T01:45:42;10.80;99.90
27890;DHT22;15238;49.082;9.102;2023-05-15T01:47:43;10.80;99.90
27890;DHT22;15238;49.082;9.102;2023-05-15T01:49:47;10.80;99.90
27890;DHT22;15238;49.082;9.102;2023-05-15T01:51:52;10.90;99.90
27890;DHT22;15238;49.082;9.102;2023-05-15T01:53:55;10.90;99.90
27890;DHT22;15238;49.082;9.102;2023-05-15T01:55:58;10.90;99.90
27890;DHT22;15238;49.082;9.102;2023-05-15T01:58:00;10.90;99.90
27890;DHT22;15238;49.082;9.102;2023-05-15T02:00:02;10.90;99.90
27890;DHT22;15238;49.082;9.102;2023-05-15T02:02:04;10.90;99.90
27890;DHT22;15238;49.082;9.102;2023-05-15T02:04:05;10.90;99.90
27890;DHT22;15238;49.082;9.102;2023-05-15T02:06:06;10.90;99.90
27890;DHT22;15238;49.082;9.102;2023-05-15T02:08:08;10.90;99.90
27890;DHT22;15238;49.082;9.102;2023-05-15T02:10:11;10.90;99.90
27890;DHT22;15238;49.082;9.102;2023-05-15T02:12:14;10.90;99.90
27890;DHT22;15238;49.082;9.102;2023-05-15T02:14:15;11.00;99.90
27890;DHT22;15238;49.082;9.102;2023-05-15T02:16:16;11.00;99.90
27890;DHT22;15238;49.082;9.102;2023-05-15T02:18:17;11.00;99.90
27890;DHT22;15238;49.082;9.102;2023-05-15T02:20:18;11.00;99.90
27890;DHT22;15238;49.082;9.102;2023-05-15T02:22:18;11.00;99.90
27890;DHT22;15238;49.082;9.102;2023-05-15T02:24:19;11.00;99.90
27890;DHT22;15238;49.082;9.102;2023-05-15T02:26:29;11.00;99.90
27890;DHT22;15238;49.082;9.102;2023-05-15T02:28:35;11.10;99.90
27890;DHT22;15238;49.082;9.102;2023-05-15T02:30:45;11.10;99.90
27890;DHT22;15238;49.082;9.102;2023-05-15T02:35:32;11.10;99.90
27890;DHT22;15238;49.082;9.102;2023-05-15T02:37:37;11.10;99.90
27890;DHT22;15238;49.082;9.102;2023-05-15T02:39:41;11.20;99.90
27890;DHT22;15238;49.082;9.102;2023-05-15T02:41:44;11.10;99.90
27890;DHT22;15238;49.082;9.102;2023-05-15T02:43:46;11.10;99.90
27890;DHT22;15238;49.082;9.102;2023-05-15T02:45:48;11.10;99.90
27890;DHT22;15238;49.082;9.102;2023-05-15T02:47:51;11.20;99.90
27890;DHT22;15238;49.082;9.102;2023-05-15T02:49:52;11.20;99.90
27890;DHT22;15238;49.082;9.102;2023-05-15T02:51:52;11.10;99.90
27890;DHT22;15238;49.082;9.102;2023-05-15T02:53:54;11.20;99.90
27890;DHT22;15238;49.082;9.102;2023-05-15T02:55:54;11.20;99.90
27890;DHT22;15238;49.082;9.102;2023-05-15T02:57:55;11.20;99.90
27890;DHT22;15238;49.082;9.102;2023-05-15T02:59:56;11.20;99.90
27890;DHT22;15238;49.082;9.102;2023-05-15T03:01:57;11.20;99.90
27890;DHT22;15238;49.082;9.102;2023-05-15T03:03:57;11.20;99.90
27890;DHT22;15238;49.082;9.102;2023-05-15T03:05:58;11.20;99.90
27890;DHT22;15238;49.082;9.102;2023-05-15T03:08:00;11.20;99.90
27890;DHT22;15238;49.082;9.102;2023-05-15T03:10:00;11.20;99.90
27890;DHT22;15238;49.082;9.102;2023-05-15T03:12:01;11.20;99.90
27890;DHT22;15238;49.082;9.102;2023-05-15T03:14:01;11.20;99.90
27890;DHT22;15238;49.082;9.102;2023-05-15T03:16:02;11.30;99.90
27890;DHT22;15238;49.082;9.102;2023-05-15T03:18:02;11.30;99.90
27890;DHT22;15238;49.082;9.102;2023-05-15T03:20:03;11.20;99.90
27890;DHT22;15238;49.082;9.102;2023-05-15T03:22:04;11.20;99.90
27890;DHT22;15238;49.082;9.102;2023-05-15T03:24:05;11.20;99.90
27890;DHT22;15238;49.082;9.102;2023-05-15T03:26:05;11.20;99.90
27890;DHT22;15238;49.082;9.102;2023-05-15T03:28:06;11.20;99.90
27890;DHT22;15238;49.082;9.102;2023-05-15T03:30:07;11.30;99.90
27890;DHT22;15238;49.082;9.102;2023-05-15T03:32:08;11.20;99.90
27890;DHT22;15238;49.082;9.102;2023-05-15T03:34:08;11.30;99.90
27890;DHT22;15238;49.082;9.102;2023-05-15T03:36:09;11.20;99.90
27890;DHT22;15238;49.082;9.102;2023-05-15T03:38:09;11.30;99.90
27890;DHT22;15238;49.082;9.102;2023-05-15T03:40:10;11.20;99.90
27890;DHT22;15238;49.082;9.102;2023-05-15T03:42:11;11.30;99.90
27890;DHT22;15238;49.082;9.102;2023-05-15T03:44:11;11.30;99.90
27890;DHT22;15238;49.082;9.102;2023-05-15T03:46:12;11.30;99.90
27890;DHT22;15238;49.082;9.102;2023-05-15T03:48:12;11.30;99.90
27890;DHT22;15238;49.082;9.102;2023-05-15T03:50:13;11.30;99.90
27890;DHT22;15238;49.082;9.102;2023-05-15T03:52:14;11.20;99.90
27890;DHT22;15238;49.082;9.102;2023-05-15T03:54:15;11.20;99.90
27890;DHT22;15238;49.082;9.102;2023-05-15T03:56:15;11.20;99.90
27890;DHT22;15238;49.082;9.102;2023-05-15T03:58:16;11.20;99.90
27890;DHT22;15238;49.082;9.102;2023-05-15T04:00:17;11.10;99.90
27890;DHT22;15238;49.082;9.102;2023-05-15T04:02:17;11.10;99.90
27890;DHT22;15238;49.082;9.102;2023-05-15T04:04:18;11.10;99.90
27890;DHT22;15238;49.082;9.102;2023-05-15T04:06:18;11.10;99.90
27890;DHT22;15238;49.082;9.102;2023-05-15T04:08:19;11.10;99.90
27890;DHT22;15238;49.082;9.102;2023-05-15T04:10:19;11.10;99.90
27890;DHT22;15238;49.082;9.102;2023-05-15T04:12:20;11.10;99.90
27890;DHT22;15238;49.082;9.102;2023-05-15T04:14:21;11.10;99.90
27890;DHT22;15238;49.082;9.102;2023-05-15T04:16:22;11.10;99.90
27890;DHT22;15238;49.082;9.102;2023-05-15T04:18:22;11.10;99.90
27890;DHT22;15238;49.082;9.102;2023-05-15T04:20:23;11.00;99.90
27890;DHT22;15238;49.082;9.102;2023-05-15T04:22:24;11.00;99.90
27890;DHT22;15238;49.082;9.102;2023-05-15T04:24:24;11.00;99.90
27890;DHT22;15238;49.082;9.102;2023-05-15T04:26:25;11.00;99.90
27890;DHT22;15238;49.082;9.102;2023-05-15T04:28:25;11.00;99.90
27890;DHT22;15238;49.082;9.102;2023-05-15T04:30:26;11.00;99.90
27890;DHT22;15238;49.082;9.102;2023-05-15T04:32:27;11.10;99.90
27890;DHT22;15238;49.082;9.102;2023-05-15T04:34:27;11.10;99.90
27890;DHT22;15238;49.082;9.102;2023-05-15T04:36:28;11.20;99.90
27890;DHT22;15238;49.082;9.102;2023-05-15T04:38:29;11.20;99.90
27890;DHT22;15238;49.082;9.102;2023-05-15T04:40:29;11.20;99.90
27890;DHT22;15238;49.082;9.102;2023-05-15T04:42:30;11.30;99.90
27890;DHT22;15238;49.082;9.102;2023-05-15T04:44:31;11.30;99.90
27890;DHT22;15238;49.082;9.102;2023-05-15T04:46:32;11.30;99.90
27890;DHT22;15238;49.082;9.102;2023-05-15T04:48:34;11.40;99.90
27890;DHT22;15238;49.082;9.102;2023-05-15T04:50:34;11.40;99.90
27890;DHT22;15238;49.082;9.102;2023-05-15T04:52:36;11.50;99.90
27890;DHT22;15238;49.082;9.102;2023-05-15T04:54:36;11.50;99.90
27890;DHT22;15238;49.082;9.102;2023-05-15T04:56:37;11.50;99.90
27890;DHT22;15238;49.082;9.102;2023-05-15T04:58:37;11.60;99.90
27890;DHT22;15238;49.082;9.102;2023-05-15T05:00:38;11.80;99.90
27890;DHT22;15238;49.082;9.102;2023-05-15T05:02:39;11.90;99.90
27890;DHT22;15238;49.082;9.102;2023-05-15T05:04:42;12.00;99.90
27890;DHT22;15238;49.082;9.102;2023-05-15T05:06:48;12.10;99.90
27890;DHT22;15238;49.082;9.102;2023-05-15T05:08:48;12.20;99.90
27890;DHT22;15238;49.082;9.102;2023-05-15T05:10:54;12.30;99.90
27890;DHT22;15238;49.082;9.102;2023-05-15T05:12:55;12.40;99.90
27890;DHT22;15238;49.082;9.102;2023-05-15T05:14:56;12.50;99.90
27890;DHT22;15238;49.082;9.102;2023-05-15T05:16:56;12.70;99.90
27890;DHT22;15238;49.082;9.102;2023-05-15T05:18:57;12.80;99.90
27890;DHT22;15238;49.082;9.102;2023-05-15T05:20:59;13.00;99.90
27890;DHT22;15238;49.082;9.102;2023-05-15T05:23:00;13.20;99.90
27890;DHT22;15238;49.082;9.102;2023-05-15T05:25:00;13.30;99.90
27890;DHT22;15238;49.082;9.102;2023-05-15T05:27:01;13.40;99.90
27890;DHT22;15238;49.082;9.102;2023-05-15T05:29:01;13.70;99.90
27890;DHT22;15238;49.082;9.102;2023-05-15T05:31:03;13.90;99.90
27890;DHT22;15238;49.082;9.102;2023-05-15T05:33:03;14.20;99.90
27890;DHT22;15238;49.082;9.102;2023-05-15T05:35:04;14.40;99.90
27890;DHT22;15238;49.082;9.102;2023-05-15T05:37:05;14.60;99.90
27890;DHT22;15238;49.082;9.102;2023-05-15T05:39:05;14.60;99.90
27890;DHT22;15238;49.082;9.102;2023-05-15T05:41:06;14.80;99.90
27890;DHT22;15238;49.082;9.102;2023-05-15T05:43:06;14.90;99.90
27890;DHT22;15238;49.082;9.102;2023-05-15T05:45:07;15.00;99.90
27890;DHT22;15238;49.082;9.102;2023-05-15T05:47:08;15.10;99.90
27890;DHT22;15238;49.082;9.102;2023-05-15T05:49:08;15.20;99.90
27890;DHT22;15238;49.082;9.102;2023-05-15T05:51:09;15.10;99.90
27890;DHT22;15238;49.082;9.102;2023-05-15T05:53:09;15.10;99.90
27890;DHT22;15238;49.082;9.102;2023-05-15T05:55:10;15.10;99.90
27890;DHT22;15238;49.082;9.102;2023-05-15T05:57:10;15.20;99.90
27890;DHT22;15238;49.082;9.102;2023-05-15T05:59:11;15.20;99.90
27890;DHT22;15238;49.082;9.102;2023-05-15T06:01:12;15.00;99.90
27890;DHT22;15238;49.082;9.102;2023-05-15T06:03:12;15.20;99.90
27890;DHT22;15238;49.082;9.102;2023-05-15T06:05:13;15.40;99.90
27890;DHT22;15238;49.082;9.102;2023-05-15T06:07:14;15.60;99.90
27890;DHT22;15238;49.082;9.102;2023-05-15T06:09:15;15.80;99.90
27890;DHT22;15238;49.082;9.102;2023-05-15T06:11:16;16.00;99.90
27890;DHT22;15238;49.082;9.102;2023-05-15T06:13:16;16.00;99.90
27890;DHT22;15238;49.082;9.102;2023-05-15T06:15:17;16.10;99.90
27890;DHT22;15238;49.082;9.102;2023-05-15T06:17:17;16.40;99.90
27890;DHT22;15238;49.082;9.102;2023-05-15T06:19:18;16.50;99.90
27890;DHT22;15238;49.082;9.102;2023-05-15T06:21:18;16.60;99.90
27890;DHT22;15238;49.082;9.102;2023-05-15T06:23:19;16.60;99.90
27890;DHT22;15238;49.082;9.102;2023-05-15T06:25:20;16.50;99.90
27890;DHT22;15238;49.082;9.102;2023-05-15T06:27:20;16.70;99.90
27890;DHT22;15238;49.082;9.102;2023-05-15T06:29:23;16.80;99.90
27890;DHT22;15238;49.082;9.102;2023-05-15T06:31:24;17.00;99.90
27890;DHT22;15238;49.082;9.102;2023-05-15T06:33:24;17.00;99.90
27890;DHT22;15238;49.082;9.102;2023-05-15T06:35:25;17.20;99.90
27890;DHT22;15238;49.082;9.102;2023-05-15T06:37:25;17.20;99.90
27890;DHT22;15238;49.082;9.102;2023-05-15T06:39:26;17.00;99.90
27890;DHT22;15238;49.082;9.102;2023-05-15T06:41:27;17.10;99.90
27890;DHT22;15238;49.082;9.102;2023-05-15T06:43:27;17.00;99.90
27890;DHT22;15238;49.082;9.102;2023-05-15T06:45:28;16.90;99.90
27890;DHT22;15238;49.082;9.102;2023-05-15T06:47:28;17.00;99.90
27890;DHT22;15238;49.082;9.102;2023-05-15T06:49:29;16.80;99.90
27890;DHT22;15238;49.082;9.102;2023-05-15T06:51:29;16.50;99.90
27890;DHT22;15238;49.082;9.102;2023-05-15T06:53:30;16.20;99.90
27890;DHT22;15238;49.082;9.102;2023-05-15T06:55:31;16.10;99.90
27890;DHT22;15238;49.082;9.102;2023-05-15T06:57:33;16.10;99.90
27890;DHT22;15238;49.082;9.102;2023-05-15T06:59:34;16.10;99.90
27890;DHT22;15238;49.082;9.102;2023-05-15T07:01:35;15.80;99.90
27890;DHT22;15238;49.082;9.102;2023-05-15T07:03:35;15.90;99.90
27890;DHT22;15238;49.082;9.102;2023-05-15T07:05:36;16.00;99.90
27890;DHT22;15238;49.082;9.102;2023-05-15T07:07:36;16.10;99.90
27890;DHT22;15238;49.082;9.102;2023-05-15T07:09:37;15.90;99.90
27890;DHT22;15238;49.082;9.102;2023-05-15T07:11:38;16.10;99.90
27890;DHT22;15238;49.082;9.102;2023-05-15T07:13:39;16.20;99.90
27890;DHT22;15238;49.082;9.102;2023-05-15T07:15:39;16.40;99.90
27890;DHT22;15238;49.082;9.102;2023-05-15T07:17:40;16.20;99.90
27890;DHT22;15238;49.082;9.102;2023-05-15T07:19:41;16.20;99.90
27890;DHT22;15238;49.082;9.102;2023-05-15T07:21:41;16.10;99.90
27890;DHT22;15238;49.082;9.102;2023-05-15T07:23:42;16.10;99.90
27890;DHT22;15238;49.082;9.102;2023-05-15T07:25:42;16.30;99.90
27890;DHT22;15238;49.082;9.102;2023-05-15T07:27:43;16.40;99.90
27890;DHT22;15238;49.082;9.102;2023-05-15T07:29:43;16.30;99.90
27890;DHT22;15238;49.082;9.102;2023-05-15T07:31:44;16.40;99.90
27890;DHT22;15238;49.082;9.102;2023-05-15T07:33:44;16.70;99.90
27890;DHT22;15238;49.082;9.102;2023-05-15T07:35:45;16.80;99.90
27890;DHT22;15238;49.082;9.102;2023-05-15T07:37:45;17.00;99.90
27890;DHT22;15238;49.082;9.102;2023-05-15T07:39:46;16.80;99.90
27890;DHT22;15238;49.082;9.102;2023-05-15T07:41:46;17.00;99.90
27890;DHT22;15238;49.082;9.102;2023-05-15T07:43:47;16.90;99.90
27890;DHT22;15238;49.082;9.102;2023-05-15T07:45:48;17.00;99.90
27890;DHT22;15238;49.082;9.102;2023-05-15T07:47:48;17.30;99.90
27890;DHT22;15238;49.082;9.102;2023-05-15T07:49:49;17.30;99.90
27890;DHT22;15238;49.082;9.102;2023-05-15T07:51:49;17.40;99.90
27890;DHT22;15238;49.082;9.102;2023-05-15T07:53:50;17.70;99.90
27890;DHT22;15238;49.082;9.102;2023-05-15T07:55:51;17.70;99.90
27890;DHT22;15238;49.082;9.102;2023-05-15T07:57:51;17.70;99.90
27890;DHT22;15238;49.082;9.102;2023-05-15T07:59:52;17.70;99.90
27890;DHT22;15238;49.082;9.102;2023-05-15T08:01:52;17.70;99.90
27890;DHT22;15238;49.082;9.102;2023-05-15T08:03:53;17.80;99.90
27890;DHT22;15238;49.082;9.102;2023-05-15T08:05:53;17.90;99.90
27890;DHT22;15238;49.082;9.102;2023-05-15T08:07:55;17.70;99.90
27890;DHT22;15238;49.082;9.102;2023-05-15T08:09:55;17.90;99.90
27890;DHT22;15238;49.082;9.102;2023-05-15T08:11:56;18.00;99.90
27890;DHT22;15238;49.082;9.102;2023-05-15T08:14:13;18.20;99.90
27890;DHT22;15238;49.082;9.102;2023-05-15T08:16:13;17.80;99.90
27890;DHT22;15238;49.082;9.102;2023-05-15T08:18:14;17.80;99.90
27890;DHT22;15238;49.082;9.102;2023-05-15T08:20:15;17.80;99.90
27890;DHT22;15238;49.082;9.102;2023-05-15T08:22:16;17.90;99.90
27890;DHT22;15238;49.082;9.102;2023-05-15T08:24:16;18.00;99.90
27890;DHT22;15238;49.082;9.102;2023-05-15T08:26:17;18.10;99.90
27890;DHT22;15238;49.082;9.102;2023-05-15T08:28:17;18.00;99.90
27890;DHT22;15238;49.082;9.102;2023-05-15T08:30:18;18.00;99.90
27890;DHT22;15238;49.082;9.102;2023-05-15T08:32:19;18.10;99.90
27890;DHT22;15238;49.082;9.102;2023-05-15T08:34:19;18.00;99.90
27890;DHT22;15238;49.082;9.102;2023-05-15T08:36:20;18.20;99.90
27890;DHT22;15238;49.082;9.102;2023-05-15T08:38:21;18.40;99.90
27890;DHT22;15238;49.082;9.102;2023-05-15T08:40:21;18.60;99.90
27890;DHT22;15238;49.082;9.102;2023-05-15T08:42:36;19.10;99.90
27890;DHT22;15238;49.082;9.102;2023-05-15T08:44:40;19.50;99.90
27890;DHT22;15238;49.082;9.102;2023-05-15T08:46:40;19.70;99.90
27890;DHT22;15238;49.082;9.102;2023-05-15T08:48:41;19.90;99.90
27890;DHT22;15238;49.082;9.102;2023-05-15T08:50:43;20.10;99.90
27890;DHT22;15238;49.082;9.102;2023-05-15T08:52:45;20.40;99.90
27890;DHT22;15238;49.082;9.102;2023-05-15T08:54:47;20.70;99.90
27890;DHT22;15238;49.082;9.102;2023-05-15T08:56:48;20.60;99.90
27890;DHT22;15238;49.082;9.102;2023-05-15T08:58:49;20.60;99.90
27890;DHT22;15238;49.082;9.102;2023-05-15T09:00:50;20.20;99.90
27890;DHT22;15238;49.082;9.102;2023-05-15T09:02:52;20.30;99.90
27890;DHT22;15238;49.082;9.102;2023-05-15T09:04:53;20.20;99.90
27890;DHT22;15238;49.082;9.102;2023-05-15T09:06:54;20.10;99.90
27890;DHT22;15238;49.082;9.102;2023-05-15T09:08:55;20.10;99.90
27890;DHT22;15238;49.082;9.102;2023-05-15T09:10:57;20.10;99.90
27890;DHT22;15238;49.082;9.102;2023-05-15T09:12:58;20.10;99.90
27890;DHT22;15238;49.082;9.102;2023-05-15T09:17:09;19.90;99.90
27890;DHT22;15238;49.082;9.102;2023-05-15T09:19:11;19.70;99.90
27890;DHT22;15238;49.082;9.102;2023-05-15T09:21:29;19.70;99.90
27890;DHT22;15238;49.082;9.102;2023-05-15T09:23:33;19.50;99.90
27890;DHT22;15238;49.082;9.102;2023-05-15T09:25:41;19.20;99.90
27890;DHT22;15238;49.082;9.102;2023-05-15T09:27:43;19.00;99.90
27890;DHT22;15238;49.082;9.102;2023-05-15T09:29:44;19.00;99.90
27890;DHT22;15238;49.082;9.102;2023-05-15T09:31:47;19.00;99.90
27890;DHT22;15238;49.082;9.102;2023-05-15T09:33:58;19.30;99.90
27890;DHT22;15238;49.082;9.102;2023-05-15T09:36:00;19.30;99.90
27890;DHT22;15238;49.082;9.102;2023-05-15T09:38:03;19.60;99.90
27890;DHT22;15238;49.082;9.102;2023-05-15T09:40:08;19.80;99.90
27890;DHT22;15238;49.082;9.102;2023-05-15T09:42:11;19.90;99.90
27890;DHT22;15238;49.082;9.102;2023-05-15T09:44:25;19.90;99.90
27890;DHT22;15238;49.082;9.102;2023-05-15T09:46:26;20.40;99.90
27890;DHT22;15238;49.082;9.102;2023-05-15T09:48:27;20.50;99.90
27890;DHT22;15238;49.082;9.102;2023-05-15T09:50:33;20.60;99.90
27890;DHT22;15238;49.082;9.102;2023-05-15T09:52:34;20.80;99.90
27890;DHT22;15238;49.082;9.102;2023-05-15T09:54:36;21.20;99.90
27890;DHT22;15238;49.082;9.102;2023-05-15T09:56:37;21.20;99.90
27890;DHT22;15238;49.082;9.102;2023-05-15T09:58:51;21.20;99.50
27890;DHT22;15238;49.082;9.102;2023-05-15T10:00:52;21.40;99.90
27890;DHT22;15238;49.082;9.102;2023-05-15T10:02:57;21.30;99.90
27890;DHT22;15238;49.082;9.102;2023-05-15T10:04:58;21.50;99.40
27890;DHT22;15238;49.082;9.102;2023-05-15T10:06:58;21.70;99.60
27890;DHT22;15238;49.082;9.102;2023-05-15T10:09:01;21.80;99.40
27890;DHT22;15238;49.082;9.102;2023-05-15T10:11:02;21.90;97.80
27890;DHT22;15238;49.082;9.102;2023-05-15T10:13:04;21.70;98.80
27890;DHT22;15238;49.082;9.102;2023-05-15T10:15:06;21.60;99.30
27890;DHT22;15238;49.082;9.102;2023-05-15T10:17:08;21.70;98.50
27890;DHT22;15238;49.082;9.102;2023-05-15T10:19:10;21.60;98.40
27890;DHT22;15238;49.082;9.102;2023-05-15T10:21:11;21.70;97.70
27890;DHT22;15238;49.082;9.102;2023-05-15T10:23:14;21.90;98.90
27890;DHT22;15238;49.082;9.102;2023-05-15T10:27:29;22.40;96.50
27890;DHT22;15238;49.082;9.102;2023-05-15T10:29:30;22.40;95.50
27890;DHT22;15238;49.082;9.102;2023-05-15T10:31:32;22.50;95.50
27890;DHT22;15238;49.082;9.102;2023-05-15T10:33:35;22.10;94.40
27890;DHT22;15238;49.082;9.102;2023-05-15T10:35:38;22.30;96.20
27890;DHT22;15238;49.082;9.102;2023-05-15T10:37:39;22.50;95.50
27890;DHT22;15238;49.082;9.102;2023-05-15T10:39:40;22.70;94.50
27890;DHT22;15238;49.082;9.102;2023-05-15T10:41:41;22.60;94.70
27890;DHT22;15238;49.082;9.102;2023-05-15T10:43:44;22.50;95.20
27890;DHT22;15238;49.082;9.102;2023-05-15T10:45:45;22.10;94.80
27890;DHT22;15238;49.082;9.102;2023-05-15T10:47:47;22.00;94.50
27890;DHT22;15238;49.082;9.102;2023-05-15T10:49:47;22.10;94.90
27890;DHT22;15238;49.082;9.102;2023-05-15T10:51:48;22.30;95.50
27890;DHT22;15238;49.082;9.102;2023-05-15T10:53:50;22.20;93.80
27890;DHT22;15238;49.082;9.102;2023-05-15T10:55:51;22.10;93.20
27890;DHT22;15238;49.082;9.102;2023-05-15T10:57:51;22.10;94.30
27890;DHT22;15238;49.082;9.102;2023-05-15T10:59:52;21.70;94.10
27890;DHT22;15238;49.082;9.102;2023-05-15T11:01:53;21.60;94.40
27890;DHT22;15238;49.082;9.102;2023-05-15T11:06:13;21.50;94.60
27890;DHT22;15238;49.082;9.102;2023-05-15T11:12:58;21.90;96.60
27890;DHT22;15238;49.082;9.102;2023-05-15T11:17:01;21.70;94.40
27890;DHT22;15238;49.082;9.102;2023-05-15T11:21:24;22.20;90.70
27890;DHT22;15238;49.082;9.102;2023-05-15T11:23:25;22.40;93.20
27890;DHT22;15238;49.082;9.102;2023-05-15T11:25:29;22.70;92.00
27890;DHT22;15238;49.082;9.102;2023-05-15T11:27:40;22.60;90.90
27890;DHT22;15238;49.082;9.102;2023-05-15T11:32:48;22.70;91.30
27890;DHT22;15238;49.082;9.102;2023-05-15T11:34:59;22.50;91.50
27890;DHT22;15238;49.082;9.102;2023-05-15T11:37:00;22.60;91.90
27890;DHT22;15238;49.082;9.102;2023-05-15T11:39:01;22.60;91.00
27890;DHT22;15238;49.082;9.102;2023-05-15T11:41:01;22.40;90.90
27890;DHT22;15238;49.082;9.102;2023-05-15T11:43:15;22.50;90.00
27890;DHT22;15238;49.082;9.102;2023-05-15T11:45:16;22.60;88.40
27890;DHT22;15238;49.082;9.102;2023-05-15T11:47:16;22.70;91.10
27890;DHT22;15238;49.082;9.102;2023-05-15T11:49:18;22.80;91.80
27890;DHT22;15238;49.082;9.102;2023-05-15T11:51:24;22.70;89.10
27890;DHT22;15238;49.082;9.102;2023-05-15T11:53:25;22.40;87.40
27890;DHT22;15238;49.082;9.102;2023-05-15T11:55:26;22.10;90.00
27890;DHT22;15238;49.082;9.102;2023-05-15T11:57:28;21.70;90.90
27890;DHT22;15238;49.082;9.102;2023-05-15T11:59:29;20.70;91.70
27890;DHT22;15238;49.082;9.102;2023-05-15T12:01:41;20.50;94.40
27890;DHT22;15238;49.082;9.102;2023-05-15T12:03:42;20.00;95.50
27890;DHT22;15238;49.082;9.102;2023-05-15T12:05:45;20.60;94.10
27890;DHT22;15238;49.082;9.102;2023-05-15T12:07:46;20.90;94.10
27890;DHT22;15238;49.082;9.102;2023-05-15T12:09:50;21.10;92.80
27890;DHT22;15238;49.082;9.102;2023-05-15T12:11:54;21.30;93.90
27890;DHT22;15238;49.082;9.102;2023-05-15T12:13:55;21.10;92.40
27890;DHT22;15238;49.082;9.102;2023-05-15T12:15:55;20.60;94.00
27890;DHT22;15238;49.082;9.102;2023-05-15T12:17:56;20.40;94.20
27890;DHT22;15238;49.082;9.102;2023-05-15T12:19:58;20.20;96.30
27890;DHT22;15238;49.082;9.102;2023-05-15T12:21:59;20.30;95.20
27890;DHT22;15238;49.082;9.102;2023-05-15T12:23:59;20.10;95.60
27890;DHT22;15238;49.082;9.102;2023-05-15T12:26:01;20.20;95.60
27890;DHT22;15238;49.082;9.102;2023-05-15T12:28:03;20.00;95.00
27890;DHT22;15238;49.082;9.102;2023-05-15T12:30:06;20.00;95.10
27890;DHT22;15238;49.082;9.102;2023-05-15T12:32:08;20.10;95.30
27890;DHT22;15238;49.082;9.102;2023-05-15T12:34:08;20.10;96.40
27890;DHT22;15238;49.082;9.102;2023-05-15T12:36:09;20.00;95.10
27890;DHT22;15238;49.082;9.102;2023-05-15T12:38:14;19.80;96.00
27890;DHT22;15238;49.082;9.102;2023-05-15T12:40:19;19.70;97.60
27890;DHT22;15238;49.082;9.102;2023-05-15T12:42:21;19.70;98.80
27890;DHT22;15238;49.082;9.102;2023-05-15T12:44:24;19.20;96.40
27890;DHT22;15238;49.082;9.102;2023-05-15T12:46:28;19.10;96.00
27890;DHT22;15238;49.082;9.102;2023-05-15T12:48:30;19.40;95.30
27890;DHT22;15238;49.082;9.102;2023-05-15T12:50:34;19.50;97.60
27890;DHT22;15238;49.082;9.102;2023-05-15T12:52:35;19.40;97.70
27890;DHT22;15238;49.082;9.102;2023-05-15T12:54:42;19.60;96.30
27890;DHT22;15238;49.082;9.102;2023-05-15T12:56:43;19.60;93.80
27890;DHT22;15238;49.082;9.102;2023-05-15T12:58:43;19.70;94.70
27890;DHT22;15238;49.082;9.102;2023-05-15T13:00:44;20.00;94.40
27890;DHT22;15238;49.082;9.102;2023-05-15T13:02:52;20.10;92.90
27890;DHT22;15238;49.082;9.102;2023-05-15T13:04:52;20.20;91.70
27890;DHT22;15238;49.082;9.102;2023-05-15T13:06:53;20.20;92.60
27890;DHT22;15238;49.082;9.102;2023-05-15T13:08:54;20.20;94.00
27890;DHT22;15238;49.082;9.102;2023-05-15T13:10:56;20.20;92.00
27890;DHT22;15238;49.082;9.102;2023-05-15T13:12:57;20.60;93.50
27890;DHT22;15238;49.082;9.102;2023-05-15T13:14:58;20.80;93.00
27890;DHT22;15238;49.082;9.102;2023-05-15T13:17:00;20.90;92.20